Time;durP1;ratioP1;P1;durP2;ratioP2;P2;SDS_P1;SDS_P2;PMS_P1;PMS_P2;Temp;Humidity;BMP_temperature;BMP_pressure;BME280_temperature;BME280_humidity;BME280_pressure;Samples;Min_cycle;Max_cycle;Signal;HPM_P1;HPM_P2
2022/11/08 00:01:42;;;;;;;0.70;0.50;;;8.80;99.90;;;;;;5115040;28;20418;-86
2022/11/08 00:04:11;;;;;;;0.40;0.40;;;8.70;99.90;;;;;;5111914;28;20443;-86
2022/11/08 00:14:53;;;;;;;1.37;0.77;;;8.70;99.90;;;;;;5102252;28;20476;-86
2022/11/08 00:17:21;;;;;;;0.60;0.43;;;8.70;99.90;;;;;;5114279;28;20499;-86
2022/11/08 00:19:49;;;;;;;0.43;0.43;;;8.70;99.90;;;;;;5105602;28;20476;-86
2022/11/08 00:22:16;;;;;;;0.70;0.70;;;8.60;99.90;;;;;;5094215;28;20473;-86
2022/11/08 00:24:44;;;;;;;0.70;0.50;;;8.50;99.90;;;;;;5100984;28;20829;-86
2022/11/08 00:27:13;;;;;;;0.90;0.87;;;8.40;99.90;;;;;;5115174;28;20811;-86
2022/11/08 00:29:40;;;;;;;0.93;0.50;;;8.40;99.90;;;;;;5100547;28;20452;-86
2022/11/08 00:32:11;;;;;;;1.03;0.83;;;8.30;99.90;;;;;;5095203;28;20465;-86
2022/11/08 00:34:38;;;;;;;1.00;1.00;;;8.30;99.90;;;;;;5108910;28;20439;-86
2022/11/08 00:37:05;;;;;;;1.90;0.50;;;8.20;99.90;;;;;;5115107;28;20956;-86
2022/11/08 00:39:32;;;;;;;1.10;1.10;;;8.20;99.90;;;;;;5117578;28;21001;-86
2022/11/08 00:41:59;;;;;;;0.90;0.70;;;8.20;99.90;;;;;;5115250;28;20471;-86
2022/11/08 00:44:25;;;;;;;2.53;0.73;;;8.20;99.90;;;;;;5113034;28;20437;-85
2022/11/08 00:46:52;;;;;;;0.63;0.40;;;8.20;99.90;;;;;;5115358;28;20535;-86
2022/11/08 00:49:20;;;;;;;0.50;0.40;;;8.20;99.90;;;;;;5126155;28;20480;-86
2022/11/08 00:51:47;;;;;;;0.43;0.43;;;8.30;99.90;;;;;;5137127;28;20495;-86
2022/11/08 00:54:16;;;;;;;1.70;0.43;;;8.30;99.90;;;;;;5105224;28;20437;-86
2022/11/08 00:56:43;;;;;;;0.43;0.43;;;8.30;99.90;;;;;;5093841;28;20454;-86
2022/11/08 00:59:12;;;;;;;0.50;0.40;;;8.30;99.90;;;;;;5102580;28;20475;-86
2022/11/08 01:01:39;;;;;;;1.17;0.40;;;8.30;99.90;;;;;;5114181;28;20447;-86
2022/11/08 01:04:06;;;;;;;3.40;1.10;;;8.30;99.90;;;;;;5113733;28;20456;-86
2022/11/08 01:06:35;;;;;;;0.80;0.80;;;8.30;99.90;;;;;;5118254;28;20457;-86
2022/11/08 01:09:02;;;;;;;0.80;0.73;;;8.30;99.90;;;;;;5111332;28;20451;-87
2022/11/08 01:11:29;;;;;;;0.70;0.70;;;8.20;99.90;;;;;;5097824;28;20444;-87
2022/11/08 01:13:58;;;;;;;0.40;0.30;;;8.20;99.90;;;;;;5103285;28;20471;-87
2022/11/08 01:16:27;;;;;;;2.83;0.50;;;8.20;99.90;;;;;;5117962;28;20458;-86
2022/11/08 01:18:55;;;;;;;1.53;0.70;;;8.20;99.90;;;;;;5112227;28;20471;-86
2022/11/08 01:21:23;;;;;;;0.93;0.40;;;8.20;99.90;;;;;;5097272;28;20958;-86
2022/11/08 01:23:53;;;;;;;0.80;0.40;;;8.20;99.90;;;;;;5101450;28;20544;-87
2022/11/08 01:26:25;;;;;;;0.40;0.40;;;8.20;99.90;;;;;;5117955;28;20451;-87
2022/11/08 01:28:52;;;;;;;0.90;0.50;;;8.20;99.90;;;;;;5113206;28;20951;-87
2022/11/08 01:31:20;;;;;;;0.70;0.70;;;8.20;99.90;;;;;;5097492;28;20947;-87
2022/11/08 01:33:48;;;;;;;1.27;0.80;;;8.10;99.90;;;;;;5108155;28;20974;-87
2022/11/08 01:36:17;;;;;;;0.87;0.73;;;8.10;99.90;;;;;;5117625;28;20526;-87
2022/11/08 01:38:44;;;;;;;0.83;0.50;;;8.00;99.90;;;;;;5106791;28;20966;-87
2022/11/08 01:41:13;;;;;;;0.40;0.30;;;7.90;99.90;;;;;;5097238;28;20532;-87
2022/11/08 01:43:42;;;;;;;3.13;0.77;;;7.90;99.90;;;;;;5106276;28;20459;-87
2022/11/08 01:46:33;;;;;;;0.40;0.30;;;7.80;99.90;;;;;;5117359;28;20977;-87
2022/11/08 01:49:29;;;;;;;0.37;0.37;;;7.80;99.90;;;;;;5117246;28;20440;-87
2022/11/08 01:52:04;;;;;;;0.60;0.30;;;7.70;99.90;;;;;;5117484;28;20463;-87
2022/11/08 01:54:35;;;;;;;0.40;0.40;;;7.60;99.90;;;;;;5104288;28;20437;-87
2022/11/08 01:57:08;;;;;;;1.73;1.63;;;7.60;99.90;;;;;;5111726;28;20446;-87
2022/11/08 01:59:38;;;;;;;0.70;0.53;;;7.50;99.90;;;;;;5117255;28;20463;-87
2022/11/08 02:02:06;;;;;;;0.30;0.30;;;7.50;99.90;;;;;;5105477;28;20464;-87
2022/11/08 02:04:33;;;;;;;0.40;0.40;;;7.50;99.90;;;;;;5096621;28;20943;-87
2022/11/08 02:07:00;;;;;;;0.70;0.60;;;7.50;99.90;;;;;;5108113;28;20443;-87
2022/11/08 02:09:27;;;;;;;3.40;0.57;;;7.50;99.90;;;;;;5117845;28;20442;-87
2022/11/08 02:11:55;;;;;;;1.23;1.23;;;7.60;99.90;;;;;;5106139;28;21013;-87
2022/11/08 02:14:23;;;;;;;0.97;0.50;;;7.60;99.90;;;;;;5097755;28;20823;-87
2022/11/08 02:16:50;;;;;;;0.80;0.80;;;7.70;99.90;;;;;;5095276;28;20480;-87
2022/11/08 02:19:29;;;;;;;0.43;0.43;;;7.70;99.90;;;;;;5098359;28;22286;-87
2022/11/08 02:22:01;;;;;;;0.70;0.70;;;7.70;99.90;;;;;;5118020;28;20978;-86
2022/11/08 02:24:29;;;;;;;0.40;0.40;;;7.70;99.90;;;;;;5114949;28;20433;-87
2022/11/08 02:26:57;;;;;;;0.50;0.50;;;7.60;99.90;;;;;;5096540;28;20495;-87
2022/11/08 02:29:30;;;;;;;0.50;0.50;;;7.60;99.90;;;;;;5099236;28;20809;-87
2022/11/08 02:31:57;;;;;;;0.63;0.40;;;7.60;99.90;;;;;;5116429;28;20470;-86
2022/11/08 02:34:28;;;;;;;0.40;0.40;;;7.60;99.90;;;;;;5113600;28;20456;-87
2022/11/08 02:36:56;;;;;;;0.67;0.50;;;7.50;99.90;;;;;;5095942;28;20429;-87
2022/11/08 02:39:23;;;;;;;3.80;0.70;;;7.50;99.90;;;;;;5097754;28;20849;-87
2022/11/08 02:41:51;;;;;;;1.10;0.40;;;7.50;99.90;;;;;;5116382;28;20451;-87
2022/11/08 02:44:18;;;;;;;0.50;0.50;;;7.50;99.90;;;;;;5116053;28;20857;-87
2022/11/08 02:46:45;;;;;;;5.53;0.67;;;7.50;99.90;;;;;;5095838;28;20441;-87
2022/11/08 02:49:12;;;;;;;0.57;0.50;;;7.50;99.90;;;;;;5095889;28;20810;-87
2022/11/08 02:51:38;;;;;;;1.07;1.07;;;7.50;99.90;;;;;;5116038;28;20440;-88
2022/11/08 02:54:05;;;;;;;0.50;0.50;;;7.40;99.90;;;;;;5117019;28;20440;-87
2022/11/08 02:56:32;;;;;;;1.07;1.00;;;7.40;99.90;;;;;;5096736;28;20839;-87
2022/11/08 02:59:00;;;;;;;0.67;0.67;;;7.30;99.90;;;;;;5095693;28;20448;-87
2022/11/08 03:01:27;;;;;;;0.67;0.40;;;7.30;99.90;;;;;;5113744;28;20456;-87
2022/11/08 03:03:54;;;;;;;0.63;0.63;;;7.30;99.90;;;;;;5115765;28;21057;-87
2022/11/08 03:06:21;;;;;;;0.60;0.50;;;7.30;99.90;;;;;;5099357;28;20932;-87
2022/11/08 03:08:48;;;;;;;2.10;0.70;;;7.30;99.90;;;;;;5095630;28;20531;-87
2022/11/08 03:11:14;;;;;;;0.70;0.40;;;7.20;99.90;;;;;;5111263;28;20972;-87
2022/11/08 03:13:41;;;;;;;0.63;0.50;;;7.20;99.90;;;;;;5115852;28;20815;-87
2022/11/08 03:16:09;;;;;;;0.50;0.50;;;7.10;99.90;;;;;;5101140;28;20535;-87
2022/11/08 03:18:36;;;;;;;8.70;1.27;;;7.10;99.90;;;;;;5095084;28;20995;-87
2022/11/08 03:21:03;;;;;;;0.87;0.53;;;7.00;99.90;;;;;;5110938;28;20520;-86
2022/11/08 03:23:31;;;;;;;0.43;0.43;;;7.00;99.90;;;;;;5137093;28;20460;-85
2022/11/08 03:26:00;;;;;;;0.40;0.40;;;7.00;99.90;;;;;;5123544;28;20512;-86
2022/11/08 03:28:27;;;;;;;0.40;0.40;;;7.00;99.90;;;;;;5116044;28;20445;-87
2022/11/08 03:30:54;;;;;;;0.50;0.40;;;7.00;99.90;;;;;;5106858;28;20439;-87
2022/11/08 03:33:22;;;;;;;0.90;0.43;;;6.90;99.90;;;;;;5107120;28;20468;-87
2022/11/08 03:35:49;;;;;;;0.87;0.87;;;7.00;99.90;;;;;;5095147;28;20449;-87
2022/11/08 03:38:17;;;;;;;2.50;0.80;;;7.00;99.90;;;;;;5101412;28;20444;-87
2022/11/08 03:40:45;;;;;;;4.47;0.73;;;6.90;99.90;;;;;;5115386;28;20496;-87
2022/11/08 03:43:11;;;;;;;0.40;0.40;;;6.90;99.90;;;;;;5114634;28;20471;-87
2022/11/08 03:45:38;;;;;;;0.40;0.40;;;6.90;99.90;;;;;;5115322;28;20444;-86
2022/11/08 03:48:06;;;;;;;0.70;0.50;;;6.90;99.90;;;;;;5114593;28;20448;-87
2022/11/08 03:50:34;;;;;;;2.93;0.70;;;6.80;99.90;;;;;;5115097;28;20448;-87
2022/11/08 03:53:01;;;;;;;0.67;0.63;;;6.80;99.90;;;;;;5114385;28;21008;-87
2022/11/08 03:55:28;;;;;;;0.70;0.50;;;6.80;99.90;;;;;;5115266;28;20443;-87
2022/11/08 03:57:56;;;;;;;0.40;0.40;;;6.80;99.90;;;;;;5112459;28;20818;-87
2022/11/08 04:00:24;;;;;;;0.50;0.30;;;6.80;99.90;;;;;;5094548;28;20476;-87
2022/11/08 04:02:51;;;;;;;0.50;0.50;;;6.80;99.90;;;;;;5095753;28;20475;-87
2022/11/08 04:05:19;;;;;;;2.27;0.67;;;6.80;99.90;;;;;;5118469;28;20477;-87
2022/11/08 04:07:47;;;;;;;0.37;0.30;;;6.80;99.90;;;;;;5113984;28;20444;-87
2022/11/08 04:10:16;;;;;;;0.70;0.30;;;6.80;99.90;;;;;;5094630;28;20451;-87
2022/11/08 04:15:29;;;;;;;0.40;0.40;;;6.70;99.90;;;;;;5094386;28;20512;-87
2022/11/08 04:23:29;;;;;;;0.70;0.47;;;6.60;99.90;;;;;;5109645;28;20455;-87
2022/11/08 04:25:57;;;;;;;0.77;0.60;;;6.60;99.90;;;;;;5094495;28;20445;-86
2022/11/08 04:28:25;;;;;;;0.50;0.50;;;6.60;99.90;;;;;;5108083;28;20444;-87
2022/11/08 04:30:54;;;;;;;0.43;0.43;;;6.60;99.90;;;;;;5114528;28;20452;-87
2022/11/08 04:33:21;;;;;;;0.40;0.33;;;6.60;99.90;;;;;;5113608;28;20842;-87
2022/11/08 04:35:48;;;;;;;1.50;0.83;;;6.60;99.90;;;;;;5114558;28;20451;-87
2022/11/08 04:38:15;;;;;;;0.80;0.80;;;6.60;99.90;;;;;;5101196;28;20444;-87
2022/11/08 04:40:44;;;;;;;0.60;0.50;;;6.50;99.90;;;;;;5099485;28;20525;-88
2022/11/08 04:43:10;;;;;;;0.60;0.50;;;6.50;99.90;;;;;;5112130;28;20477;-87
2022/11/08 04:45:37;;;;;;;0.83;0.50;;;6.50;99.90;;;;;;5121465;28;20450;-88
2022/11/08 04:48:04;;;;;;;0.40;0.40;;;6.50;99.90;;;;;;5110689;27;20448;-87
2022/11/08 04:50:31;;;;;;;0.30;0.30;;;6.50;99.90;;;;;;5100857;28;20444;-87
2022/11/08 04:52:58;;;;;;;0.40;0.40;;;6.50;99.90;;;;;;5109344;28;20459;-87
2022/11/08 04:55:25;;;;;;;1.10;0.80;;;6.50;99.90;;;;;;5121155;28;20447;-87
2022/11/08 04:57:57;;;;;;;0.50;0.43;;;6.60;99.90;;;;;;5112736;28;20451;-87
2022/11/08 05:00:25;;;;;;;0.40;0.40;;;6.70;99.90;;;;;;5100719;28;20472;-87
2022/11/08 05:02:51;;;;;;;0.70;0.43;;;6.70;99.90;;;;;;5107665;28;20467;-87
2022/11/08 05:05:18;;;;;;;0.93;0.93;;;6.70;99.90;;;;;;5121304;28;20439;-87
2022/11/08 05:07:45;;;;;;;1.57;0.50;;;6.70;99.90;;;;;;5114838;28;20450;-87
2022/11/08 05:10:12;;;;;;;1.37;0.40;;;6.70;99.90;;;;;;5100342;28;20932;-87
2022/11/08 05:12:39;;;;;;;3.80;0.40;;;6.70;99.90;;;;;;5105148;28;20546;-87
2022/11/08 05:15:08;;;;;;;0.63;0.50;;;6.70;99.90;;;;;;5121040;28;20454;-87
2022/11/08 05:17:35;;;;;;;7.93;0.70;;;6.70;99.90;;;;;;5115635;28;20472;-87
2022/11/08 05:25:30;;;;;;;0.47;0.37;;;6.80;99.90;;;;;;5120783;28;20399;-87
2022/11/08 05:27:58;;;;;;;0.43;0.43;;;6.90;99.90;;;;;;5114219;27;20487;-87
2022/11/08 05:30:26;;;;;;;1.23;0.50;;;6.90;99.90;;;;;;5100178;28;20452;-87
2022/11/08 05:32:53;;;;;;;0.50;0.30;;;6.90;99.90;;;;;;5114085;28;20467;-87
2022/11/08 05:35:21;;;;;;;0.87;0.87;;;6.90;99.90;;;;;;5120971;28;20447;-86
2022/11/08 05:37:48;;;;;;;1.53;0.60;;;6.90;99.90;;;;;;5107835;28;20448;-87
2022/11/08 05:40:15;;;;;;;2.93;0.50;;;6.90;99.90;;;;;;5100078;28;20488;-87
2022/11/08 05:42:42;;;;;;;0.30;0.30;;;6.90;99.90;;;;;;5110654;28;20471;-87
2022/11/08 05:45:10;;;;;;;0.60;0.53;;;6.90;99.90;;;;;;5120792;28;20448;-87
2022/11/08 05:47:38;;;;;;;5.83;0.60;;;6.80;99.90;;;;;;5109589;28;20533;-87
2022/11/08 05:50:05;;;;;;;0.40;0.40;;;6.80;99.90;;;;;;5100445;28;20488;-87
2022/11/08 05:52:32;;;;;;;0.87;0.40;;;6.80;99.90;;;;;;5105226;28;20467;-87
2022/11/08 05:55:00;;;;;;;0.30;0.30;;;6.80;99.90;;;;;;5117527;28;20439;-87
2022/11/08 05:57:26;;;;;;;0.40;0.33;;;6.80;99.90;;;;;;5109042;28;20456;-87
2022/11/08 05:59:53;;;;;;;1.07;0.33;;;6.80;99.90;;;;;;5097157;28;20449;-87
2022/11/08 06:02:20;;;;;;;0.40;0.33;;;6.90;99.90;;;;;;5110005;28;20459;-85
2022/11/08 06:04:49;;;;;;;0.60;0.60;;;7.00;99.90;;;;;;5141141;27;20457;-87
2022/11/08 06:07:16;;;;;;;1.13;0.97;;;7.00;99.90;;;;;;5160376;27;20457;-87
2022/11/08 06:09:43;;;;;;;0.50;0.40;;;7.00;99.90;;;;;;5150735;27;20508;-86
2022/11/08 06:12:10;;;;;;;3.17;0.53;;;7.00;99.90;;;;;;5099633;28;20516;-87
2022/11/08 06:14:37;;;;;;;0.30;0.30;;;7.10;99.90;;;;;;5097149;28;20808;-87
2022/11/08 06:17:04;;;;;;;0.67;0.33;;;7.10;99.90;;;;;;5096599;28;20483;-87
2022/11/08 06:19:31;;;;;;;0.30;0.20;;;7.10;99.90;;;;;;5107915;28;20480;-87
2022/11/08 06:21:59;;;;;;;1.40;0.50;;;7.10;99.90;;;;;;5116801;28;20487;-88
2022/11/08 06:24:25;;;;;;;0.40;0.40;;;7.10;99.90;;;;;;5106220;28;20440;-88
2022/11/08 06:26:52;;;;;;;0.30;0.30;;;7.10;99.90;;;;;;5108417;28;20453;-87
2022/11/08 06:29:19;;;;;;;0.50;0.40;;;7.10;99.90;;;;;;5107619;28;20858;-88
2022/11/08 06:31:46;;;;;;;1.07;0.40;;;7.20;99.90;;;;;;5096323;28;20445;-87
2022/11/08 06:34:13;;;;;;;0.40;0.40;;;7.20;99.90;;;;;;5104569;28;20439;-88
2022/11/08 06:36:39;;;;;;;2.10;0.60;;;7.20;99.90;;;;;;5116759;28;20446;-87
2022/11/08 06:39:08;;;;;;;0.40;0.37;;;7.20;99.90;;;;;;5109370;28;20444;-88
2022/11/08 06:41:35;;;;;;;1.23;0.60;;;7.20;99.90;;;;;;5095775;28;20472;-87
2022/11/08 06:44:02;;;;;;;0.50;0.50;;;7.20;99.90;;;;;;5101491;28;20451;-87
2022/11/08 06:46:29;;;;;;;0.40;0.40;;;7.20;99.90;;;;;;5116343;28;20452;-87
2022/11/08 06:48:55;;;;;;;0.40;0.30;;;7.20;99.90;;;;;;5111856;28;20816;-87
2022/11/08 06:51:22;;;;;;;0.43;0.43;;;7.30;99.90;;;;;;5095777;28;20955;-87
2022/11/08 06:53:49;;;;;;;0.90;0.50;;;7.30;99.90;;;;;;5099271;28;20463;-88
2022/11/08 06:56:17;;;;;;;0.30;0.30;;;7.30;99.90;;;;;;5116198;28;20444;-87
2022/11/08 06:58:44;;;;;;;0.40;0.40;;;7.30;99.90;;;;;;5114071;28;20553;-87
2022/11/08 07:01:12;;;;;;;0.40;0.37;;;7.30;99.90;;;;;;5095943;28;20480;-87
2022/11/08 07:03:39;;;;;;;0.40;0.30;;;7.40;99.90;;;;;;5096016;28;20563;-87
2022/11/08 07:06:07;;;;;;;0.50;0.40;;;7.30;99.90;;;;;;5116245;28;20440;-87
2022/11/08 07:08:34;;;;;;;0.40;0.40;;;7.40;99.90;;;;;;5115794;28;20440;-87
2022/11/08 07:11:01;;;;;;;0.40;0.37;;;7.50;99.90;;;;;;5115883;28;21002;-87
2022/11/08 07:13:29;;;;;;;0.30;0.30;;;7.60;99.90;;;;;;5116057;28;20466;-87
2022/11/08 07:15:58;;;;;;;0.40;0.30;;;7.70;99.90;;;;;;5095933;28;20475;-87
2022/11/08 07:18:25;;;;;;;0.40;0.33;;;7.80;99.90;;;;;;5095197;28;20488;-87
2022/11/08 07:20:52;;;;;;;0.50;0.43;;;7.80;99.90;;;;;;5095622;28;20483;-87
2022/11/08 07:23:19;;;;;;;0.40;0.30;;;7.80;99.90;;;;;;5101455;28;20472;-87
2022/11/08 07:25:46;;;;;;;0.47;0.47;;;7.90;99.90;;;;;;5115956;28;20448;-87
2022/11/08 07:28:16;;;;;;;9.83;0.80;;;7.90;99.90;;;;;;5110349;28;20449;-87
2022/11/08 07:30:45;;;;;;;0.60;0.50;;;8.00;99.90;;;;;;5096582;28;20780;-88
2022/11/08 07:33:11;;;;;;;0.30;0.30;;;8.00;99.90;;;;;;5115963;28;20464;-87
2022/11/08 07:35:38;;;;;;;1.80;0.30;;;8.00;99.90;;;;;;5116600;28;20957;-87
2022/11/08 07:38:05;;;;;;;0.40;0.30;;;8.10;99.90;;;;;;5097084;28;20816;-87
2022/11/08 07:40:34;;;;;;;0.40;0.30;;;8.10;99.90;;;;;;5095146;28;20570;-88
2022/11/08 07:43:01;;;;;;;0.40;0.40;;;8.10;99.90;;;;;;5112768;28;20477;-86
2022/11/08 07:45:28;;;;;;;0.40;0.30;;;8.10;99.90;;;;;;5108315;28;20966;-86
2022/11/08 07:48:01;;;;;;;0.40;0.40;;;8.10;99.90;;;;;;5094964;28;20436;-87
2022/11/08 07:50:28;;;;;;;0.70;0.47;;;8.20;99.90;;;;;;5094850;28;20449;-87
2022/11/08 07:52:55;;;;;;;0.30;0.30;;;8.20;99.90;;;;;;5094567;28;20979;-87
2022/11/08 07:55:22;;;;;;;0.63;0.63;;;8.30;99.90;;;;;;5095739;28;20455;-87
2022/11/08 07:57:49;;;;;;;2.10;0.43;;;8.40;99.90;;;;;;5094854;28;20821;-87
2022/11/08 08:00:17;;;;;;;0.70;0.40;;;8.40;99.90;;;;;;5098365;28;20833;-87
2022/11/08 08:02:44;;;;;;;0.30;0.30;;;8.60;99.90;;;;;;5115189;28;20472;-87
2022/11/08 08:05:12;;;;;;;0.43;0.43;;;8.70;99.90;;;;;;5112341;28;20463;-87
2022/11/08 08:07:39;;;;;;;6.63;0.40;;;8.70;99.90;;;;;;5094430;28;20963;-87
2022/11/08 08:10:06;;;;;;;0.30;0.30;;;8.90;99.90;;;;;;5094386;28;20936;-87
2022/11/08 08:12:33;;;;;;;0.40;0.40;;;9.10;99.90;;;;;;5097481;28;20551;-87
2022/11/08 08:15:00;;;;;;;0.40;0.30;;;9.10;99.90;;;;;;5094542;28;20459;-87
2022/11/08 08:17:26;;;;;;;0.40;0.40;;;9.40;99.90;;;;;;5094211;28;20490;-87
2022/11/08 08:19:53;;;;;;;0.37;0.33;;;9.60;99.90;;;;;;5095079;28;20531;-87
2022/11/08 08:22:21;;;;;;;0.40;0.40;;;9.70;99.90;;;;;;5095161;28;20830;-87
2022/11/08 08:24:48;;;;;;;0.40;0.40;;;9.90;99.90;;;;;;5095332;28;20449;-86
2022/11/08 08:27:15;;;;;;;0.60;0.40;;;10.30;99.90;;;;;;5095666;28;20453;-87
2022/11/08 08:29:42;;;;;;;1.33;0.40;;;10.60;99.90;;;;;;5095600;28;20449;-89
2022/11/08 08:32:08;;;;;;;0.43;0.43;;;11.10;99.90;;;;;;5095261;28;20842;-87
2022/11/08 08:34:35;;;;;;;0.63;0.50;;;11.50;99.90;;;;;;5095151;28;20820;-88
2022/11/08 08:37:02;;;;;;;0.50;0.40;;;11.90;99.90;;;;;;5095166;28;20444;-88
2022/11/08 08:39:30;;;;;;;0.70;0.70;;;12.40;99.90;;;;;;5094855;28;20449;-87
2022/11/08 08:41:57;;;;;;;0.93;0.43;;;13.10;99.90;;;;;;5094709;28;20488;-87
2022/11/08 08:44:24;;;;;;;0.63;0.37;;;14.10;99.90;;;;;;5094748;28;20452;-87
2022/11/08 08:46:51;;;;;;;1.23;0.50;;;14.50;99.90;;;;;;5094562;28;20539;-87
2022/11/08 08:49:17;;;;;;;0.50;0.50;;;14.50;99.90;;;;;;5094618;28;20460;-87
2022/11/08 08:51:44;;;;;;;0.40;0.33;;;14.30;99.90;;;;;;5094583;28;20451;-88
2022/11/08 08:54:13;;;;;;;0.40;0.40;;;14.00;99.90;;;;;;5104647;28;20468;-87
2022/11/08 08:56:41;;;;;;;0.60;0.37;;;13.80;99.90;;;;;;5116308;28;20436;-86
2022/11/08 08:59:09;;;;;;;0.60;0.53;;;13.40;99.90;;;;;;5111601;28;20803;-88
2022/11/08 09:01:36;;;;;;;0.80;0.40;;;13.20;99.90;;;;;;5105054;28;20546;-86
2022/11/08 09:04:03;;;;;;;0.50;0.50;;;13.00;99.90;;;;;;5095725;28;20457;-88
2022/11/08 09:06:30;;;;;;;0.97;0.40;;;12.80;99.90;;;;;;5094590;28;20470;-88
2022/11/08 09:08:57;;;;;;;0.47;0.30;;;12.70;99.90;;;;;;5094574;28;20444;-88
2022/11/08 09:11:24;;;;;;;0.70;0.40;;;13.00;99.90;;;;;;5094356;28;20446;-87
2022/11/08 09:13:52;;;;;;;3.80;0.70;;;14.00;99.90;;;;;;5093980;28;21048;-87
2022/11/08 09:16:19;;;;;;;0.33;0.30;;;15.50;99.90;;;;;;5094227;28;20924;-88
2022/11/08 09:18:46;;;;;;;0.50;0.50;;;16.50;99.90;;;;;;5093907;28;20479;-87
2022/11/08 09:21:12;;;;;;;0.50;0.50;;;16.90;99.90;;;;;;5093810;28;20560;-87
2022/11/08 09:23:40;;;;;;;0.50;0.40;;;17.10;99.90;;;;;;5093925;28;20475;-87
2022/11/08 09:26:07;;;;;;;1.10;0.50;;;16.80;99.90;;;;;;5095629;28;20803;-87
2022/11/08 09:28:35;;;;;;;0.50;0.40;;;16.80;99.90;;;;;;5098864;28;20883;-87
2022/11/08 09:31:05;;;;;;;0.50;0.40;;;16.90;99.90;;;;;;5097702;28;20523;-87
2022/11/08 09:33:33;;;;;;;0.70;0.70;;;16.10;99.90;;;;;;5097471;28;20465;-87
2022/11/08 09:36:00;;;;;;;1.27;0.60;;;15.70;99.90;;;;;;5097414;28;20452;-87
2022/11/08 09:38:27;;;;;;;0.77;0.50;;;15.40;99.90;;;;;;5097587;28;20445;-87
2022/11/08 09:41:13;;;;;;;0.97;0.60;;;15.10;99.90;;;;;;5097507;28;20453;-86
2022/11/08 09:43:57;;;;;;;0.40;0.40;;;15.20;99.90;;;;;;5097451;28;20464;-87
2022/11/08 09:46:33;;;;;;;0.97;0.60;;;16.10;99.90;;;;;;5097006;28;20800;-86
2022/11/08 09:49:01;;;;;;;0.63;0.53;;;16.60;99.90;;;;;;5096816;28;20433;-86
2022/11/08 09:51:30;;;;;;;0.50;0.40;;;16.80;99.90;;;;;;5097573;28;20460;-86
2022/11/08 09:53:59;;;;;;;0.43;0.40;;;16.80;99.90;;;;;;5098287;28;20472;-86
2022/11/08 09:56:30;;;;;;;0.60;0.50;;;16.50;99.90;;;;;;5098143;28;20823;-86
2022/11/08 09:59:00;;;;;;;0.50;0.47;;;16.00;99.90;;;;;;5097855;28;20441;-85
2022/11/08 10:01:30;;;;;;;0.47;0.47;;;15.50;99.90;;;;;;5097372;28;20536;-86
2022/11/08 10:04:00;;;;;;;0.50;0.50;;;15.10;99.90;;;;;;5097603;28;20472;-86
2022/11/08 10:06:42;;;;;;;1.00;0.47;;;15.00;99.90;;;;;;5098238;28;20444;-87
2022/11/08 10:09:24;;;;;;;1.27;0.80;;;14.90;99.90;;;;;;5097275;28;20435;-86
2022/11/08 10:12:09;;;;;;;0.47;0.47;;;14.80;99.90;;;;;;5098077;28;20437;-87
2022/11/08 10:14:52;;;;;;;0.40;0.40;;;14.90;99.90;;;;;;5099614;28;20437;-87
2022/11/08 10:17:46;;;;;;;0.53;0.40;;;14.80;99.90;;;;;;5097642;28;20857;-86
2022/11/08 10:20:23;;;;;;;0.67;0.43;;;14.80;99.90;;;;;;5096904;28;20433;-87
2022/11/08 10:22:57;;;;;;;0.67;0.60;;;14.50;99.90;;;;;;5096764;28;20487;-82
2022/11/08 10:25:29;;;;;;;0.70;0.40;;;14.50;99.90;;;;;;5097046;28;20432;-85
2022/11/08 10:28:33;;;;;;;0.40;0.30;;;14.40;99.90;;;;;;5096206;28;20811;-82
2022/11/08 10:31:01;;;;;;;0.40;0.40;;;14.40;99.90;;;;;;5096736;28;20448;-85
2022/11/08 10:33:34;;;;;;;0.53;0.40;;;14.30;99.90;;;;;;5095262;28;20838;-82
2022/11/08 10:36:06;;;;;;;0.40;0.40;;;14.40;99.90;;;;;;5095569;28;20441;-82
2022/11/08 10:38:39;;;;;;;0.50;0.50;;;14.40;99.90;;;;;;5094831;28;20443;-82
2022/11/08 10:41:14;;;;;;;1.33;0.40;;;14.50;99.90;;;;;;5095138;28;20929;-82
2022/11/08 10:43:44;;;;;;;0.80;0.50;;;14.70;99.90;;;;;;5095406;28;20477;-83
2022/11/08 10:46:24;;;;;;;0.50;0.50;;;14.70;99.90;;;;;;5095393;28;20432;-83
2022/11/08 10:48:52;;;;;;;0.40;0.30;;;14.90;99.90;;;;;;5096747;28;20435;-84
2022/11/08 10:51:19;;;;;;;0.93;0.50;;;15.20;99.90;;;;;;5096157;28;20451;-80
2022/11/08 10:53:45;;;;;;;0.57;0.57;;;15.40;99.90;;;;;;5096358;28;20527;-83
2022/11/08 10:56:13;;;;;;;1.07;0.43;;;15.50;99.90;;;;;;5095195;28;20535;-83
2022/11/08 10:58:42;;;;;;;1.57;0.53;;;15.50;99.90;;;;;;5095185;28;20449;-83
2022/11/08 11:01:16;;;;;;;0.60;0.57;;;15.60;99.90;;;;;;5095034;28;20460;-82
2022/11/08 11:03:44;;;;;;;0.43;0.43;;;15.70;99.90;;;;;;5094760;28;20469;-82
2022/11/08 11:06:24;;;;;;;2.03;0.50;;;15.70;99.90;;;;;;5095100;28;20467;-83
2022/11/08 11:08:54;;;;;;;0.60;0.50;;;15.70;99.90;;;;;;5095743;28;20444;-83
2022/11/08 11:11:36;;;;;;;1.70;0.53;;;15.70;99.90;;;;;;5094775;28;20444;-83
2022/11/08 11:14:13;;;;;;;0.60;0.60;;;15.70;99.90;;;;;;5094964;28;20798;-83
2022/11/08 11:16:53;;;;;;;0.50;0.50;;;15.60;99.90;;;;;;5094384;28;20978;-83
2022/11/08 11:19:20;;;;;;;1.27;0.50;;;15.50;99.90;;;;;;5094782;28;20436;-83
2022/11/08 11:21:57;;;;;;;0.37;0.30;;;15.50;99.90;;;;;;5094556;28;20492;-83
2022/11/08 11:24:24;;;;;;;0.83;0.40;;;15.60;99.90;;;;;;5094489;28;20529;-83
2022/11/08 11:27:02;;;;;;;0.40;0.40;;;15.70;99.90;;;;;;5094288;28;20977;-83
2022/11/08 11:29:30;;;;;;;0.70;0.40;;;15.60;99.90;;;;;;5094672;28;20433;-84
2022/11/08 11:31:57;;;;;;;0.33;0.30;;;15.60;99.90;;;;;;5094406;28;20543;-83
2022/11/08 11:34:47;;;;;;;0.40;0.33;;;15.60;99.90;;;;;;5094473;28;20448;-83
2022/11/08 11:37:25;;;;;;;1.27;0.50;;;15.60;99.90;;;;;;5094437;28;20563;-83
2022/11/08 11:40:16;;;;;;;0.40;0.40;;;15.50;99.90;;;;;;5094165;28;20894;-83
2022/11/08 11:42:54;;;;;;;0.93;0.60;;;15.50;99.90;;;;;;5094000;28;20990;-83
2022/11/08 11:45:25;;;;;;;1.87;0.90;;;15.50;99.90;;;;;;5094431;28;20523;-84
2022/11/08 11:47:55;;;;;;;0.50;0.50;;;15.50;99.90;;;;;;5094226;28;20440;-84
2022/11/08 11:50:31;;;;;;;2.30;0.40;;;15.60;99.90;;;;;;5093645;28;20448;-83
2022/11/08 11:53:03;;;;;;;0.50;0.30;;;15.70;99.90;;;;;;5094224;28;20468;-83
2022/11/08 11:55:41;;;;;;;0.40;0.40;;;15.70;99.90;;;;;;5094204;28;20441;-83
2022/11/08 11:58:21;;;;;;;1.23;0.47;;;15.80;99.90;;;;;;5094097;28;20443;-84
2022/11/08 12:00:56;;;;;;;0.50;0.40;;;15.80;99.90;;;;;;5093769;28;20432;-83
2022/11/08 12:03:39;;;;;;;0.70;0.60;;;15.70;99.90;;;;;;5093537;28;20488;-84
2022/11/08 12:06:28;;;;;;;0.40;0.30;;;15.70;99.90;;;;;;5094027;28;20443;-83
2022/11/08 12:09:18;;;;;;;0.93;0.50;;;15.70;99.90;;;;;;5096163;28;20780;-82
2022/11/08 12:11:55;;;;;;;0.50;0.50;;;15.70;99.90;;;;;;5094188;28;20428;-83
2022/11/08 12:14:38;;;;;;;0.77;0.50;;;15.60;99.90;;;;;;5094700;28;20432;-84
2022/11/08 12:17:19;;;;;;;0.60;0.40;;;15.50;99.90;;;;;;5095476;28;20468;-83
2022/11/08 12:19:56;;;;;;;1.47;0.50;;;15.50;99.90;;;;;;5094867;28;20447;-83
2022/11/08 12:22:40;;;;;;;0.50;0.50;;;15.50;99.90;;;;;;5094227;28;21002;-83
2022/11/08 12:25:15;;;;;;;0.50;0.40;;;15.50;99.90;;;;;;5094205;28;20436;-83
2022/11/08 12:27:50;;;;;;;0.93;0.40;;;15.60;99.90;;;;;;5094050;28;20435;-83
2022/11/08 12:30:20;;;;;;;0.50;0.40;;;15.60;99.90;;;;;;5093816;28;20871;-83
2022/11/08 12:33:08;;;;;;;0.40;0.40;;;15.50;99.90;;;;;;5094443;28;20470;-82
2022/11/08 12:35:44;;;;;;;1.07;0.40;;;15.50;99.90;;;;;;5094168;28;20433;-83
2022/11/08 12:38:21;;;;;;;0.40;0.40;;;15.50;99.90;;;;;;5096222;28;20451;-83
2022/11/08 12:40:57;;;;;;;0.40;0.40;;;15.50;99.90;;;;;;5093997;28;20912;-83
2022/11/08 12:43:38;;;;;;;0.40;0.40;;;15.50;99.90;;;;;;5094037;28;20523;-83
2022/11/08 12:46:11;;;;;;;0.60;0.47;;;15.60;99.90;;;;;;5094308;28;20425;-83
2022/11/08 12:49:04;;;;;;;0.40;0.40;;;15.60;99.90;;;;;;5094209;28;20453;-83
2022/11/08 12:51:48;;;;;;;0.70;0.50;;;15.60;99.90;;;;;;5093691;28;20490;-83
2022/11/08 12:54:23;;;;;;;1.17;0.50;;;15.60;99.90;;;;;;5093560;28;20437;-83
2022/11/08 12:56:53;;;;;;;0.67;0.50;;;15.60;99.90;;;;;;5093883;28;20436;-83
2022/11/08 12:59:24;;;;;;;0.70;0.50;;;15.70;99.90;;;;;;5093667;28;20510;-83
2022/11/08 13:01:53;;;;;;;0.40;0.33;;;15.80;99.90;;;;;;5096662;28;20441;-83
2022/11/08 13:04:33;;;;;;;0.50;0.40;;;15.90;99.90;;;;;;5097562;28;20528;-82
2022/11/08 13:07:06;;;;;;;0.60;0.50;;;16.00;99.90;;;;;;5097446;28;20433;-82
2022/11/08 13:09:40;;;;;;;0.50;0.43;;;16.10;99.90;;;;;;5097459;28;20425;-82
2022/11/08 13:12:21;;;;;;;0.40;0.40;;;16.10;99.90;;;;;;5096915;28;21002;-82
2022/11/08 13:14:49;;;;;;;0.40;0.30;;;16.00;99.90;;;;;;5097282;28;20902;-83
2022/11/08 13:17:21;;;;;;;0.67;0.40;;;16.00;99.90;;;;;;5097020;28;20551;-83
2022/11/08 13:20:27;;;;;;;0.50;0.40;;;15.90;99.90;;;;;;5097100;28;20433;-81
2022/11/08 13:22:59;;;;;;;0.60;0.40;;;15.90;99.90;;;;;;5089815;28;20487;-83
2022/11/08 13:25:47;;;;;;;0.40;0.40;;;15.80;99.90;;;;;;5097064;28;20429;-82
2022/11/08 13:28:37;;;;;;;0.43;0.43;;;15.70;99.90;;;;;;5093459;28;20456;-82
2022/11/08 13:31:17;;;;;;;0.30;0.30;;;15.60;99.90;;;;;;5096940;28;20471;-82